Time;durP1;ratioP1;P1;durP2;ratioP2;P2;SDS_P1;SDS_P2;PMS_P1;PMS_P2;Temp;Humidity;BMP_temperature;BMP_pressure;BME280_temperature;BME280_humidity;BME280_pressure;Samples;Min_cycle;Max_cycle;Signal;HPM_P1;HPM_P2
2023/03/03 00:00:57;;;;;;;14.90;9.55;;;;;;;0.66;100.00;102569.69;5092195;28;20501;-75
2023/03/03 00:03:25;;;;;;;15.55;9.13;;;;;;;0.64;100.00;102579.72;5091640;28;20102;-75
2023/03/03 00:05:53;;;;;;;16.30;10.07;;;;;;;0.62;100.00;102568.81;5091502;28;20090;-74
2023/03/03 00:08:19;;;;;;;15.68;9.80;;;;;;;0.58;100.00;102576.56;5089850;28;20036;-75
2023/03/03 00:10:46;;;;;;;17.48;9.15;;;;;;;0.57;100.00;102572.41;5090673;28;20048;-75
2023/03/03 00:13:21;;;;;;;12.48;9.27;;;;;;;0.56;100.00;102577.97;5070588;28;20048;-75
2023/03/03 00:15:48;;;;;;;15.55;10.40;;;;;;;0.54;100.00;102570.44;5070208;28;20114;-76
2023/03/03 00:18:29;;;;;;;16.63;10.02;;;;;;;0.53;100.00;102573.38;5070209;28;20048;-75
2023/03/03 00:20:59;;;;;;;13.60;10.02;;;;;;;0.52;100.00;102571.84;5071844;28;20040;-75
2023/03/03 00:23:42;;;;;;;18.15;9.52;;;;;;;0.49;100.00;102573.25;5071529;28;20068;-76
2023/03/03 00:26:20;;;;;;;;;;;;;;;0.51;100.00;102580.81;5070394;28;20048;-76
2023/03/03 00:28:50;;;;;;;13.52;9.07;;;;;;;0.50;100.00;102580.03;5071640;28;19924;-75
2023/03/03 00:31:36;;;;;;;16.52;10.13;;;;;;;0.52;100.00;102588.34;5069395;28;20053;-74
2023/03/03 00:34:18;;;;;;;15.05;9.68;;;;;;;0.53;100.00;102589.88;5070244;28;20088;-75
2023/03/03 00:36:53;;;;;;;16.17;10.32;;;;;;;0.53;100.00;102595.13;5070262;28;20048;-75
2023/03/03 00:39:36;;;;;;;18.65;10.82;;;;;;;0.55;100.00;102598.19;5072597;28;20127;-75
2023/03/03 00:42:32;;;;;;;16.83;10.98;;;;;;;0.58;100.00;102591.53;5072955;28;20053;-75
2023/03/03 00:44:59;;;;;;;16.38;9.75;;;;;;;0.55;100.00;102592.16;5074578;28;20064;-75
2023/03/03 00:47:29;;;;;;;20.95;11.05;;;;;;;0.54;100.00;102596.66;5073797;28;20524;-74
2023/03/03 00:50:06;;;;;;;20.17;10.90;;;;;;;0.54;100.00;102588.00;5074803;28;20041;-75
2023/03/03 00:52:36;;;;;;;18.58;11.00;;;;;;;0.52;100.00;102592.81;5074389;28;20047;-74
2023/03/03 00:55:04;;;;;;;18.15;11.30;;;;;;;0.52;100.00;102592.81;5072376;28;20573;-74
2023/03/03 00:57:30;;;;;;;16.67;10.57;;;;;;;0.49;100.00;102599.47;5074109;28;20449;-74
2023/03/03 00:59:58;;;;;;;18.13;11.82;;;;;;;0.49;100.00;102602.09;5072977;28;20614;-74
2023/03/03 01:02:25;;;;;;;17.98;10.70;;;;;;;0.50;100.00;102598.38;5071880;28;20045;-75
2023/03/03 01:04:56;;;;;;;19.73;11.38;;;;;;;0.50;100.00;102598.38;5074627;28;20509;-74
2023/03/03 01:07:22;;;;;;;20.13;11.75;;;;;;;0.52;100.00;102598.06;5072138;28;20103;-75
2023/03/03 01:09:49;;;;;;;17.75;11.40;;;;;;;0.51;100.00;102601.78;5074285;28;20124;-74
2023/03/03 01:12:16;;;;;;;19.38;11.40;;;;;;;0.49;100.00;102598.69;5073743;28;20045;-73
2023/03/03 01:14:44;;;;;;;19.90;11.25;;;;;;;0.49;100.00;102602.09;5072821;28;20048;-73
2023/03/03 01:17:11;;;;;;;23.67;12.07;;;;;;;0.48;100.00;102600.56;5071865;28;20048;-73
2023/03/03 01:19:38;;;;;;;20.92;12.23;;;;;;;0.49;100.00;102604.72;5073949;28;20033;-74
2023/03/03 01:22:05;;;;;;;20.48;11.32;;;;;;;0.50;100.00;102600.22;5073406;28;20045;-74
2023/03/03 01:24:31;;;;;;;24.95;12.25;;;;;;;0.50;100.00;102601.00;5073862;28;20048;-73
2023/03/03 01:26:59;;;;;;;19.90;11.20;;;;;;;0.52;100.00;102598.06;5072707;28;20057;-73
2023/03/03 01:29:25;;;;;;;20.95;11.55;;;;;;;0.51;100.00;102599.16;5073342;28;20041;-73
2023/03/03 01:31:52;;;;;;;22.63;12.38;;;;;;;0.50;100.00;102597.63;5073505;28;20080;-73
2023/03/03 01:34:18;;;;;;;19.23;11.82;;;;;;;0.50;100.00;102595.75;5073080;28;20462;-73
2023/03/03 01:36:45;;;;;;;19.65;12.73;;;;;;;0.50;100.00;102602.84;5071861;28;20069;-74
2023/03/03 01:39:11;;;;;;;22.83;13.00;;;;;;;0.53;100.00;102607.44;5073475;28;20410;-72
2023/03/03 01:41:38;;;;;;;24.50;12.35;;;;;;;0.53;100.00;102602.97;5073970;28;20045;-74
2023/03/03 01:44:06;;;;;;;19.60;11.73;;;;;;;0.52;100.00;102603.31;5072372;28;20049;-73
2023/03/03 01:47:01;;;;;;;23.88;13.40;;;;;;;0.52;100.00;102598.81;5071489;28;20052;-74
2023/03/03 01:49:34;;;;;;;25.83;14.05;;;;;;;0.54;100.00;102612.38;5071226;28;20064;-74
2023/03/03 01:52:08;;;;;;;21.15;12.13;;;;;;;0.53;100.00;102607.44;5072699;28;20477;-74
2023/03/03 01:54:40;;;;;;;21.92;12.35;;;;;;;0.51;100.00;102602.53;5073630;28;20045;-74
2023/03/03 01:57:11;;;;;;;;;;;;;;;0.52;100.00;102608.53;5074053;28;20049;-74
2023/03/03 01:59:43;;;;;;;19.13;11.07;;;;;;;0.51;100.00;102601.78;5072306;28;19924;-73
2023/03/03 02:02:10;;;;;;;27.20;12.63;;;;;;;0.51;100.00;102604.38;5071347;28;20569;-74
2023/03/03 02:04:37;;;;;;;18.80;11.35;;;;;;;0.50;100.00;102605.47;5073606;28;20461;-74
2023/03/03 02:07:10;;;;;;;22.45;12.05;;;;;;;0.47;100.00;102606.88;5073077;28;20052;-74
2023/03/03 02:09:45;;;;;;;21.33;12.57;;;;;;;0.45;100.00;102597.81;5073311;28;20049;-74
2023/03/03 02:12:16;;;;;;;21.63;12.43;;;;;;;0.45;100.00;102606.44;5072834;28;20080;-73
2023/03/03 02:14:43;;;;;;;25.70;13.18;;;;;;;0.44;100.00;102606.78;5073059;28;20041;-73
2023/03/03 02:17:10;;;;;;;24.38;12.90;;;;;;;0.45;100.00;102603.06;5054180;28;20417;-73
2023/03/03 02:19:57;;;;;;;25.48;12.77;;;;;;;0.45;100.00;102597.81;5071828;28;20048;-73
2023/03/03 02:22:43;;;;;;;23.77;12.52;;;;;;;0.43;100.00;102607.84;5070971;28;20049;-74
2023/03/03 02:25:16;;;;;;;20.38;11.52;;;;;;;0.43;100.00;102605.25;5072561;28;20041;-74
2023/03/03 02:27:43;;;;;;;19.92;12.02;;;;;;;0.42;100.00;102606.31;5071924;28;20071;-74
2023/03/03 02:30:16;;;;;;;24.42;13.02;;;;;;;0.40;100.00;102606.66;5070860;28;20056;-74
2023/03/03 02:32:42;;;;;;;23.60;12.10;;;;;;;0.39;100.00;102604.38;5071213;28;20060;-74
2023/03/03 02:35:27;;;;;;;22.40;11.73;;;;;;;0.39;100.00;102604.38;5072609;28;20044;-74
2023/03/03 02:37:58;;;;;;;23.70;12.43;;;;;;;0.39;100.00;102605.16;5073376;28;20048;-74
2023/03/03 02:40:30;;;;;;;21.63;12.65;;;;;;;0.40;100.00;102605.91;5071083;28;20621;-75
2023/03/03 02:43:00;;;;;;;17.88;10.98;;;;;;;0.38;100.00;102602.84;5072911;28;20045;-74
2023/03/03 02:45:26;;;;;;;17.80;11.07;;;;;;;0.39;100.00;102609.63;5072167;28;20033;-74
2023/03/03 02:47:53;;;;;;;18.13;10.27;;;;;;;0.38;100.00;102603.63;5072983;28;20045;-75
2023/03/03 02:50:19;;;;;;;24.50;11.85;;;;;;;0.38;100.00;102593.13;5070478;28;20128;-74
2023/03/03 02:52:46;;;;;;;21.40;11.45;;;;;;;0.41;100.00;102599.56;5072997;28;20045;-74
2023/03/03 02:55:16;;;;;;;20.27;11.25;;;;;;;0.41;100.00;102600.31;5072321;28;20041;-75
2023/03/03 02:57:43;;;;;;;24.83;12.18;;;;;;;0.42;100.00;102601.09;5054517;28;20049;-75
2023/03/03 03:00:10;;;;;;;23.48;12.60;;;;;;;0.43;100.00;102602.63;5070117;28;20624;-75
2023/03/03 03:02:37;;;;;;;26.23;13.32;;;;;;;0.44;100.00;102609.38;5071402;28;20049;-74
2023/03/03 03:05:04;;;;;;;24.42;12.75;;;;;;;0.45;100.00;102600.44;5070464;28;20053;-74
2023/03/03 03:07:31;;;;;;;25.90;13.02;;;;;;;0.46;100.00;102607.97;5070755;28;20053;-74
2023/03/03 03:09:57;;;;;;;25.95;13.25;;;;;;;0.45;100.00;102614.31;5071117;28;20056;-75
2023/03/03 03:12:26;;;;;;;25.83;13.50;;;;;;;0.45;100.00;102608.31;5070235;28;20052;-74
2023/03/03 03:14:55;;;;;;;25.83;12.52;;;;;;;0.46;100.00;102605.34;5072478;28;20124;-74
2023/03/03 03:17:21;;;;;;;25.85;13.18;;;;;;;0.43;100.00;102603.38;5072063;28;20051;-74
2023/03/03 03:19:50;;;;;;;23.33;12.45;;;;;;;0.44;100.00;102609.38;5071117;28;20049;-75
2023/03/03 03:22:18;;;;;;;20.48;12.13;;;;;;;0.43;100.00;102607.84;5070510;28;20048;-74
2023/03/03 03:24:45;;;;;;;26.05;12.80;;;;;;;0.44;100.00;102601.53;5070738;28;20049;-74
2023/03/03 03:27:11;;;;;;;29.30;13.13;;;;;;;0.45;100.00;102603.06;5069915;28;20075;-74
2023/03/03 03:29:38;;;;;;;24.33;12.80;;;;;;;0.46;100.00;102599.34;5070709;28;20103;-74
2023/03/03 03:32:04;;;;;;;24.77;12.80;;;;;;;0.45;100.00;102608.31;5072018;28;20083;-74
2023/03/03 03:34:31;;;;;;;25.73;12.95;;;;;;;0.43;100.00;102608.63;5070566;28;20082;-74
2023/03/03 03:36:58;;;;;;;25.95;13.20;;;;;;;0.42;100.00;102607.09;5070746;28;20168;-74
2023/03/03 03:39:26;;;;;;;25.98;13.05;;;;;;;0.42;100.00;102609.72;5070416;28;20576;-74
2023/03/03 03:41:53;;;;;;;28.88;13.25;;;;;;;0.39;100.00;102607.00;5071877;28;20060;-74
2023/03/03 03:44:22;;;;;;;23.00;12.23;;;;;;;0.38;100.00;102606.22;5070098;28;20502;-74
2023/03/03 03:46:49;;;;;;;28.27;12.02;;;;;;;0.40;100.00;102605.91;5070573;28;20045;-74
2023/03/03 03:49:16;;;;;;;23.13;11.85;;;;;;;0.41;100.00;102610.81;5071359;28;20095;-74
2023/03/03 03:51:45;;;;;;;22.20;11.88;;;;;;;0.41;100.00;102615.28;5070581;28;20084;-74
2023/03/03 03:54:15;;;;;;;21.58;11.88;;;;;;;0.42;100.00;102619.44;5069628;28;20053;-74
2023/03/03 03:56:42;;;;;;;18.42;10.60;;;;;;;0.43;100.00;102615.72;5069925;28;20099;-75
2023/03/03 03:59:09;;;;;;;20.05;10.90;;;;;;;0.41;100.00;102616.03;5069868;28;20049;-74
2023/03/03 04:01:37;;;;;;;22.45;11.93;;;;;;;0.43;100.00;102620.97;5070302;28;20052;-75
2023/03/03 04:04:04;;;;;;;23.17;11.02;;;;;;;0.40;100.00;102622.38;5070136;28;20073;-74
2023/03/03 04:06:31;;;;;;;18.02;10.98;;;;;;;0.40;100.00;102622.38;5070050;28;20045;-74
2023/03/03 04:08:57;;;;;;;22.90;11.43;;;;;;;0.42;100.00;102627.28;5070259;28;20048;-75
2023/03/03 04:11:25;;;;;;;22.58;10.95;;;;;;;0.43;100.00;102628.81;5069317;28;20053;-75
2023/03/03 04:13:52;;;;;;;20.83;11.48;;;;;;;0.40;100.00;102619.00;5075471;28;20033;-75
2023/03/03 04:16:19;;;;;;;24.50;11.55;;;;;;;0.40;100.00;102627.63;5073164;28;20510;-75
2023/03/03 04:18:46;;;;;;;24.67;11.93;;;;;;;0.42;100.00;102627.28;5075040;28;20120;-75
2023/03/03 04:21:15;;;;;;;21.30;10.70;;;;;;;0.41;100.00;102623.13;5071612;28;20140;-75
2023/03/03 04:23:43;;;;;;;22.00;11.43;;;;;;;0.41;100.00;102623.91;5073900;28;20076;-75
2023/03/03 04:26:10;;;;;;;18.75;10.07;;;;;;;0.41;100.00;102623.13;5074229;28;20045;-75
2023/03/03 04:28:37;;;;;;;19.70;10.23;;;;;;;0.39;100.00;102631.34;5075289;28;20044;-75
2023/03/03 04:31:05;;;;;;;21.10;9.90;;;;;;;0.39;100.00;102627.97;5073486;28;20075;-75
2023/03/03 04:33:32;;;;;;;21.35;10.40;;;;;;;0.37;100.00;102625.66;5073301;28;20148;-75
2023/03/03 04:36:00;;;;;;;19.17;9.10;;;;;;;0.37;100.00;102628.28;5073546;28;20053;-75
2023/03/03 04:38:26;;;;;;;16.90;9.40;;;;;;;0.38;100.00;102629.06;5074722;28;20467;-75
2023/03/03 04:40:55;;;;;;;21.25;10.65;;;;;;;0.38;100.00;102623.81;5073258;28;20132;-75
2023/03/03 04:43:24;;;;;;;19.75;9.77;;;;;;;0.40;100.00;102629.50;5073236;28;20529;-75
2023/03/03 04:45:52;;;;;;;21.60;11.13;;;;;;;0.39;100.00;102623.50;5073875;28;20060;-76
2023/03/03 04:48:20;;;;;;;21.35;11.68;;;;;;;0.42;100.00;102632.53;5056024;28;20048;-75
2023/03/03 04:50:46;;;;;;;23.02;10.18;;;;;;;0.42;100.00;102633.28;5073483;28;20079;-75
2023/03/03 04:53:13;;;;;;;22.00;10.77;;;;;;;0.44;100.00;102635.59;5072761;28;20049;-75
2023/03/03 04:55:41;;;;;;;22.52;10.18;;;;;;;0.44;100.00;102632.97;5074205;28;20060;-75
2023/03/03 04:58:09;;;;;;;20.08;11.13;;;;;;;0.45;100.00;102631.88;5072931;28;20077;-75
2023/03/03 05:00:36;;;;;;;19.52;10.20;;;;;;;0.45;100.00;102635.28;5073182;28;20059;-75
2023/03/03 05:03:03;;;;;;;22.00;10.65;;;;;;;0.46;100.00;102630.78;5072874;28;20128;-75
2023/03/03 05:05:29;;;;;;;26.75;11.25;;;;;;;0.48;100.00;102633.84;5072794;28;20045;-75
2023/03/03 05:07:56;;;;;;;20.05;10.00;;;;;;;0.47;100.00;102627.84;5074396;28;20049;-75
2023/03/03 05:10:22;;;;;;;20.23;8.43;;;;;;;0.49;100.00;102617.03;5073521;28;20045;-75
2023/03/03 05:12:49;;;;;;;16.05;8.45;;;;;;;0.49;100.00;102622.28;5074502;28;20041;-75
2023/03/03 05:15:15;;;;;;;18.63;9.07;;;;;;;0.49;100.00;102619.66;5073739;28;20098;-75
2023/03/03 05:17:42;;;;;;;20.15;9.45;;;;;;;0.51;100.00;102623.50;5072698;28;20473;-75
2023/03/03 05:20:13;;;;;;;20.10;8.68;;;;;;;0.53;100.00;102618.69;5073848;28;20051;-75
2023/03/03 05:22:40;;;;;;;17.73;8.32;;;;;;;0.54;100.00;102627.31;5073973;28;20097;-75
2023/03/03 05:25:08;;;;;;;19.55;8.98;;;;;;;0.53;100.00;102617.94;5073552;28;20075;-75
2023/03/03 05:27:34;;;;;;;17.50;8.40;;;;;;;0.53;100.00;102621.31;5073821;28;20482;-75
2023/03/03 05:30:01;;;;;;;14.45;7.50;;;;;;;0.54;100.00;102628.09;5073986;28;20087;-75
2023/03/03 05:32:27;;;;;;;20.95;9.40;;;;;;;0.55;100.00;102631.47;5073155;28;20045;-75
2023/03/03 05:34:54;;;;;;;14.43;8.18;;;;;;;0.56;100.00;102622.53;5073801;28;20037;-75
2023/03/03 05:37:23;;;;;;;15.57;8.85;;;;;;;0.60;100.00;102620.78;5072638;28;20126;-76
2023/03/03 05:39:49;;;;;;;17.75;8.65;;;;;;;0.58;100.00;102621.13;5073815;28;20069;-75
2023/03/03 05:42:16;;;;;;;15.60;7.82;;;;;;;0.60;100.00;102626.03;5073326;28;20494;-75
2023/03/03 05:44:42;;;;;;;20.38;8.90;;;;;;;0.64;100.00;102629.53;5074001;28;20068;-75
2023/03/03 05:47:09;;;;;;;18.88;8.75;;;;;;;0.64;100.00;102627.69;5073317;28;20481;-75
2023/03/03 05:49:36;;;;;;;16.90;8.77;;;;;;;0.66;100.00;102628.13;5073698;28;20107;-75
2023/03/03 05:52:02;;;;;;;18.92;8.80;;;;;;;0.69;100.00;102631.19;5072933;28;20048;-75
2023/03/03 05:54:30;;;;;;;15.90;8.45;;;;;;;0.70;100.00;102630.88;5073316;28;20056;-76
2023/03/03 05:56:57;;;;;;;21.15;9.02;;;;;;;0.72;100.00;102639.16;5073373;28;20045;-75
2023/03/03 05:59:23;;;;;;;20.38;9.23;;;;;;;0.74;100.00;102633.59;5073088;28;20074;-75
2023/03/03 06:01:50;;;;;;;19.45;9.07;;;;;;;0.76;100.00;102631.41;5073845;28;20119;-75
2023/03/03 06:04:17;;;;;;;17.98;9.40;;;;;;;0.76;100.00;102634.81;5073036;28;20049;-76
2023/03/03 06:06:43;;;;;;;19.15;9.20;;;;;;;0.79;100.00;102639.41;5071767;28;20103;-76
2023/03/03 06:09:10;;;;;;;20.23;9.63;;;;;;;0.78;100.00;102632.63;5072761;28;20052;-75
2023/03/03 06:11:36;;;;;;;18.67;9.82;;;;;;;0.79;100.00;102641.25;5072252;28;20047;-75
2023/03/03 06:14:03;;;;;;;18.30;9.45;;;;;;;0.78;100.00;102645.75;5073154;28;20067;-75
2023/03/03 06:16:29;;;;;;;21.08;9.30;;;;;;;0.80;100.00;102640.16;5073145;28;20041;-75
2023/03/03 06:18:56;;;;;;;18.02;8.90;;;;;;;0.80;100.00;102650.66;5073549;28;20045;-75
2023/03/03 06:21:23;;;;;;;21.58;10.02;;;;;;;0.82;100.00;102646.59;5070930;28;20553;-75
2023/03/03 06:23:49;;;;;;;17.55;9.15;;;;;;;0.81;100.00;102649.53;5073253;28;20048;-75
2023/03/03 06:26:16;;;;;;;19.15;9.25;;;;;;;0.83;100.00;102649.97;5072389;28;20076;-75
2023/03/03 06:28:42;;;;;;;19.90;9.38;;;;;;;0.85;100.00;102651.19;5071514;28;20052;-75
2023/03/03 06:31:09;;;;;;;21.17;8.77;;;;;;;0.84;100.00;102643.66;5072617;28;20048;-75
2023/03/03 06:33:37;;;;;;;23.83;9.52;;;;;;;0.83;100.00;102653.38;5072055;28;20099;-75
2023/03/03 06:36:03;;;;;;;29.95;9.40;;;;;;;0.85;100.00;102653.81;5070735;28;20580;-75
2023/03/03 06:38:31;;;;;;;20.10;9.35;;;;;;;0.85;100.00;102656.44;5072632;28;20050;-75
2023/03/03 06:41:00;;;;;;;29.25;9.63;;;;;;;0.86;100.00;102651.94;5072908;28;20073;-75
2023/03/03 06:43:27;;;;;;;22.55;8.95;;;;;;;0.89;100.00;102659.94;5072507;28;20478;-75
2023/03/03 06:45:53;;;;;;;27.05;8.32;;;;;;;0.90;100.00;102663.31;5072875;28;20077;-75
2023/03/03 06:48:20;;;;;;;26.77;9.27;;;;;;;0.89;100.00;102665.19;5072219;28;20045;-75
2023/03/03 06:50:47;;;;;;;26.55;8.25;;;;;;;0.90;100.00;102668.56;5072528;28;20040;-75
2023/03/03 06:53:15;;;;;;;22.33;8.30;;;;;;;0.90;100.00;102682.44;5071781;28;20045;-76
2023/03/03 06:55:43;;;;;;;18.60;8.55;;;;;;;0.93;100.00;102670.53;5072754;28;20454;-75
2023/03/03 06:58:16;;;;;;;13.93;8.15;;;;;;;0.93;100.00;102681.03;5071851;28;20049;-75
2023/03/03 07:00:45;;;;;;;26.77;8.15;;;;;;;0.95;100.00;102679.63;5072955;28;20052;-76
2023/03/03 07:03:17;;;;;;;23.77;6.93;;;;;;;0.99;100.00;102685.75;5070984;28;20252;-75
2023/03/03 07:05:44;;;;;;;15.05;6.93;;;;;;;1.00;100.00;102686.50;5072552;28;20131;-77
2023/03/03 07:08:17;;;;;;;14.35;7.32;;;;;;;1.03;100.00;102687.72;5072731;28;20056;-76
2023/03/03 07:10:45;;;;;;;12.95;6.68;;;;;;;1.04;100.00;102682.16;5073269;28;20112;-78
2023/03/03 07:13:22;;;;;;;13.98;7.10;;;;;;;1.07;100.00;102696.47;5072435;28;20053;-78
2023/03/03 07:15:54;;;;;;;13.60;7.22;;;;;;;1.11;100.00;102699.97;5072212;28;20041;-76
2023/03/03 07:18:46;;;;;;;18.13;7.45;;;;;;;1.13;100.00;102705.66;5071685;28;20048;-76
2023/03/03 07:21:25;;;;;;;12.07;7.28;;;;;;;1.17;100.00;102702.06;5072025;28;20037;-76
2023/03/03 07:23:52;;;;;;;15.60;7.07;;;;;;;1.19;100.00;102710.38;5072897;28;20056;-76
2023/03/03 07:26:24;;;;;;;11.85;6.25;;;;;;;1.22;100.00;102704.44;5071402;28;20037;-76
2023/03/03 07:28:57;;;;;;;13.93;6.72;;;;;;;1.24;100.00;102710.13;5072649;28;20040;-77
2023/03/03 07:31:40;;;;;;;11.00;6.15;;;;;;;1.28;100.00;102702.38;5072810;28;20040;-77
2023/03/03 07:34:19;;;;;;;8.85;5.47;;;;;;;1.31;100.00;102709.59;5071873;28;20080;-77
2023/03/03 07:36:47;;;;;;;11.25;6.55;;;;;;;1.35;100.00;102713.09;5072738;28;20131;-80
2023/03/03 07:39:42;;;;;;;10.82;6.55;;;;;;;1.40;100.00;102709.47;5072230;28;20494;-81
2023/03/03 07:42:26;;;;;;;12.93;6.35;;;;;;;1.41;100.00;102719.66;5072803;28;20045;-78
2023/03/03 07:45:27;;;;;;;9.85;5.88;;;;;;;1.43;100.00;102721.94;5072266;28;20049;-80
2023/03/03 07:48:02;;;;;;;9.43;5.55;;;;;;;1.45;100.00;102727.63;5075817;28;20080;-77
2023/03/03 07:50:28;;;;;;;12.52;6.07;;;;;;;1.46;100.00;102729.19;5076134;28;20048;-76
2023/03/03 07:52:58;;;;;;;10.98;6.25;;;;;;;1.49;100.00;102733.78;5076162;28;20049;-78
2023/03/03 07:55:39;;;;;;;11.00;5.75;;;;;;;1.52;100.00;102733.88;5075768;28;20414;-77
2023/03/03 07:58:14;;;;;;;8.32;5.30;;;;;;;1.57;100.00;102738.91;5075624;28;20049;-75
2023/03/03 08:00:44;;;;;;;11.23;5.57;;;;;;;1.59;100.00;102738.59;5074516;28;20533;-79
2023/03/03 08:03:18;;;;;;;10.02;5.97;;;;;;;1.60;100.00;102737.50;5056707;28;20051;-76
2023/03/03 08:05:49;;;;;;;9.52;5.85;;;;;;;1.61;100.00;102742.38;5074491;28;20154;-75
2023/03/03 08:08:35;;;;;;;10.77;6.00;;;;;;;1.69;100.00;102738.13;5075578;28;20096;-75
2023/03/03 08:11:03;;;;;;;11.75;5.72;;;;;;;1.78;100.00;102746.66;5076163;28;20524;-75
2023/03/03 08:13:41;;;;;;;11.77;5.82;;;;;;;1.81;100.00;102740.75;5075593;28;20055;-76
2023/03/03 08:16:08;;;;;;;11.30;6.07;;;;;;;1.82;100.00;102754.63;5075867;28;20076;-75
2023/03/03 08:18:38;;;;;;;9.50;5.32;;;;;;;1.81;100.00;102756.50;5075313;28;20049;-77
2023/03/03 08:21:34;;;;;;;8.85;5.82;;;;;;;1.85;100.00;102764.47;5075892;28;20041;-76
2023/03/03 08:24:01;;;;;;;7.05;5.20;;;;;;;1.87;100.00;102760.44;5070659;28;20052;-76
2023/03/03 08:26:27;;;;;;;8.45;5.40;;;;;;;1.91;100.00;102763.94;5075641;28;20571;-78
2023/03/03 08:28:54;;;;;;;9.95;5.65;;;;;;;1.94;100.00;102762.50;5075600;28;20463;-75
2023/03/03 08:31:21;;;;;;;11.77;5.93;;;;;;;1.97;100.00;102773.13;5074835;28;20447;-76
2023/03/03 08:34:05;;;;;;;10.70;5.65;;;;;;;2.01;100.00;102763.47;5075115;28;20064;-76
2023/03/03 08:36:32;;;;;;;10.95;5.95;;;;;;;2.09;100.00;102767.06;5075497;28;20041;-76
2023/03/03 08:39:00;;;;;;;10.60;6.30;;;;;;;2.16;100.00;102779.66;5074132;28;20099;-76
2023/03/03 08:41:27;;;;;;;10.63;6.07;;;;;;;2.20;100.00;102773.41;5075377;28;20041;-76
2023/03/03 08:43:53;;;;;;;12.38;5.78;;;;;;;2.24;100.00;102771.63;5075531;28;20068;-78
2023/03/03 08:46:20;;;;;;;11.60;6.43;;;;;;;2.32;100.00;102769.97;5074728;28;20048;-77
2023/03/03 08:48:47;;;;;;;12.75;5.75;;;;;;;2.38;100.00;102778.41;5075549;28;20536;-76
2023/03/03 08:51:13;;;;;;;9.52;5.40;;;;;;;2.44;100.00;102775.19;5073885;28;20052;-77
2023/03/03 08:53:40;;;;;;;10.40;5.93;;;;;;;2.53;100.00;102775.03;5075354;28;20113;-76
2023/03/03 08:56:07;;;;;;;10.50;6.10;;;;;;;2.58;100.00;102772.19;5075200;28;20486;-75
2023/03/03 08:58:34;;;;;;;13.95;5.97;;;;;;;2.65;100.00;102770.50;5074413;28;20049;-74
2023/03/03 09:01:02;;;;;;;11.38;5.88;;;;;;;2.73;100.00;102768.84;5074965;28;20056;-76
2023/03/03 09:03:29;;;;;;;9.65;5.97;;;;;;;2.87;100.00;102771.06;5074503;28;20124;-77
2023/03/03 09:05:56;;;;;;;8.40;5.35;;;;;;;2.97;100.00;102773.19;5073741;28;20073;-77
2023/03/03 09:08:22;;;;;;;7.93;5.38;;;;;;;3.01;100.00;102766.16;5074773;28;20567;-76
2023/03/03 09:10:49;;;;;;;6.30;4.78;;;;;;;3.07;100.00;102766.69;5073649;28;20049;-76
2023/03/03 09:13:18;;;;;;;9.85;5.40;;;;;;;3.14;100.00;102765.00;5072991;28;20510;-75
2023/03/03 09:15:49;;;;;;;9.02;5.18;;;;;;;3.19;100.00;102772.66;5074462;28;20044;-75
2023/03/03 09:18:30;;;;;;;10.23;5.50;;;;;;;3.29;100.00;102773.97;5074452;28;20084;-78
2023/03/03 09:20:57;;;;;;;8.02;5.22;;;;;;;3.33;100.00;102775.59;5074655;28;20045;-76
2023/03/03 09:23:40;;;;;;;7.28;4.50;;;;;;;3.40;100.00;102771.63;5072603;28;20112;-78
2023/03/03 09:26:10;;;;;;;9.80;5.05;;;;;;;3.43;100.00;102768.31;5074867;28;20056;-76
2023/03/03 09:28:36;;;;;;;5.57;4.75;;;;;;;3.50;100.00;102776.38;5075064;28;20544;-77
2023/03/03 09:31:16;;;;;;;8.48;4.80;;;;;;;3.57;99.93;102773.91;5074522;28;20045;-77
2023/03/03 09:33:48;;;;;;;9.10;5.00;;;;;;;3.60;98.96;102770.56;5072934;28;20060;-77
2023/03/03 09:36:23;;;;;;;7.22;4.22;;;;;;;3.62;98.84;102774.38;5073341;28;20041;-78
2023/03/03 09:38:50;;;;;;;6.63;4.72;;;;;;;3.67;98.39;102766.22;5074632;28;20505;-78
2023/03/03 09:41:39;;;;;;;6.32;4.72;;;;;;;3.76;98.43;102776.59;5074481;28;20056;-77
2023/03/03 09:44:12;;;;;;;6.05;4.93;;;;;;;3.84;97.69;102777.50;5072717;28;20077;-80
2023/03/03 09:46:50;;;;;;;5.25;4.50;;;;;;;3.84;96.99;102777.50;5074850;28;20040;-77
2023/03/03 09:49:17;;;;;;;6.85;5.18;;;;;;;3.89;97.06;102785.91;5074429;28;20563;-77
2023/03/03 09:51:46;;;;;;;11.00;5.32;;;;;;;3.95;96.79;102778.50;5073296;28;20075;-76
2023/03/03 09:54:19;;;;;;;8.32;5.10;;;;;;;4.02;96.75;102782.03;5074107;28;20040;-76
2023/03/03 09:56:53;;;;;;;9.13;5.07;;;;;;;4.07;96.39;102780.25;5074006;28;20045;-76
2023/03/03 09:59:58;;;;;;;5.55;4.22;;;;;;;4.18;95.89;102783.88;5073687;28;20048;-77
2023/03/03 10:02:47;;;;;;;6.28;4.68;;;;;;;4.29;95.81;102784.84;5074333;28;20473;-77
2023/03/03 10:05:26;;;;;;;6.50;4.88;;;;;;;4.38;94.92;102788.06;5074208;28;20110;-77
2023/03/03 10:08:15;;;;;;;7.25;4.45;;;;;;;4.46;94.02;102788.94;5073162;28;20052;-77
2023/03/03 10:11:28;;;;;;;4.95;4.45;;;;;;;4.62;93.96;102793.03;5073175;28;20054;-77
2023/03/03 10:14:09;;;;;;;3.97;3.60;;;;;;;4.77;92.87;102782.75;5034097;28;20144;-78
2023/03/03 10:17:00;;;;;;;5.00;3.55;;;;;;;4.95;90.75;102781.19;5051706;28;20042;-78
2023/03/03 10:19:36;;;;;;;5.32;4.00;;;;;;;4.91;90.37;102785.63;5051197;28;20060;-76
2023/03/03 10:22:19;;;;;;;6.10;3.33;;;;;;;4.72;89.63;102783.81;5051467;28;20049;-76
2023/03/03 10:25:03;;;;;;;5.45;4.05;;;;;;;4.81;89.54;102778.28;5051364;28;20119;-76
2023/03/03 10:27:46;;;;;;;4.68;3.33;;;;;;;5.07;89.04;102772.34;5050263;28;20154;-76
2023/03/03 10:30:20;;;;;;;5.97;3.70;;;;;;;5.31;87.94;102777.25;5051115;28;20050;-75
2023/03/03 10:33:14;;;;;;;3.25;2.95;;;;;;;5.28;86.61;102780.59;5050864;28;20208;-76
2023/03/03 10:35:50;;;;;;;3.63;3.30;;;;;;;5.33;86.42;102778.44;5050981;28;20525;-76
2023/03/03 10:39:02;;;;;;;3.90;3.38;;;;;;;5.54;85.58;102783.28;5050811;28;20166;-76
2023/03/03 10:41:41;;;;;;;5.97;3.28;;;;;;;5.58;84.73;102778.81;5050973;28;20045;-76
2023/03/03 10:44:24;;;;;;;4.28;3.70;;;;;;;5.69;85.13;102782.38;5057072;28;20510;-76
2023/03/03 10:47:04;;;;;;;5.68;3.50;;;;;;;5.85;84.08;102779.56;5073307;28;20048;-76
2023/03/03 10:49:53;;;;;;;4.88;3.58;;;;;;;5.98;83.64;102788.84;5072943;28;20128;-76
2023/03/03 10:52:38;;;;;;;7.93;3.83;;;;;;;6.15;82.78;102792.06;5073342;28;20541;-76
2023/03/03 10:55:20;;;;;;;7.95;3.38;;;;;;;6.24;81.68;102787.28;5073337;28;20136;-75
2023/03/03 10:58:16;;;;;;;;;;;;;;;6.35;82.87;102788.94;5073662;28;20045;-76
2023/03/03 11:01:08;;;;;;;3.67;3.28;;;;;;;6.55;81.74;102784.22;5070772;28;19970;-76
2023/03/03 11:03:40;;;;;;;8.35;3.42;;;;;;;6.55;80.55;102783.47;5070628;28;20486;-74
2023/03/03 11:06:13;;;;;;;;;;;;;;;6.55;81.53;102776.28;5070863;28;20045;-73
2023/03/03 11:08:46;;;;;;;5.65;3.45;;;;;;;6.60;80.22;102783.16;5070979;28;19935;-76
2023/03/03 11:11:18;;;;;;;3.63;2.90;;;;;;;6.61;79.34;102788.06;5068911;28;20053;-78
2023/03/03 11:13:55;;;;;;;5.43;2.83;;;;;;;6.45;79.00;102784.88;5070257;28;20458;-81
2023/03/03 11:16:27;;;;;;;4.22;2.90;;;;;;;6.34;79.02;102782.13;5070538;28;20064;-77
2023/03/03 11:19:25;;;;;;;5.55;2.97;;;;;;;6.43;79.31;102779.16;5069912;28;20057;-81
2023/03/03 11:21:57;;;;;;;6.28;3.20;;;;;;;6.30;79.31;102777.91;5070268;28;20057;-81
2023/03/03 11:24:33;;;;;;;3.20;2.70;;;;;;;6.22;78.87;102766.47;5070166;28;20053;-81
2023/03/03 11:27:05;;;;;;;4.20;2.90;;;;;;;6.09;78.15;102773.09;5070304;28;20056;-78
2023/03/03 11:29:41;;;;;;;3.38;2.63;;;;;;;6.04;77.57;102760.19;5071005;28;20068;-76
2023/03/03 11:32:16;;;;;;;4.50;3.15;;;;;;;6.20;77.81;102766.06;5070977;28;20095;-78
2023/03/03 11:34:57;;;;;;;4.75;3.00;;;;;;;6.36;77.13;102760.59;5070565;28;20540;-76
2023/03/03 11:37:36;;;;;;;3.22;2.92;;;;;;;6.53;76.82;102757.38;5071163;28;20111;-77
2023/03/03 11:40:35;;;;;;;4.47;3.00;;;;;;;6.75;77.03;102754.94;5072480;28;20071;-77